KSNL/SNL METAR and TAF weather

Enter ICAO airport designator
Station Type Date Time Source
KSNL METAR 2020/02/22 05:55 UTC NOAA

KSNL 220555Z AUTO 18007KT 10SM CLR 00/M06 A3040 RMK AO2 T10051065 10061 21007 400901082


Station Type Date Time Source
KSNL Decoded METAR 2020/02/22 05:55 UTC NOAA

Shawnee, Shawnee Municipal Airport, OK, United States (KSNL) 35-21-26N 096-56-34W
Feb 22, 2020 - 12:55 AM EST / 2020.02.22 0555 UTC
Wind: from the S (180 degrees) at 8 MPH (7 KT):0
Visibility: 10 mile(s):0
Sky conditions: clear
Temperature: 31.1 F (-0.5 C)
Windchill: 23 F (-5 C):1
Dew Point: 20.3 F (-6.5 C)
Relative Humidity: 63%
Pressure (altimeter): 30.4 in. Hg (1029 hPa)
ob: KSNL 220555Z AUTO 18007KT 10SM CLR 00/M06 A3040 RMK AO2 T10051065 10061 21007 400901082
cycle: 6

Station Type Date Time Source
KSNL TAF UTC NOAA

Error!

Example: see airport list